To NAV CANADA Home Page Login to a new session Search on AWWS site Feedback and Comments Disclaimer Vers la page française équivalente Tips FAQ What's new on the site To the Forecasts and Observations / NOTAM section To "File a Flight Plan" website Publications and other links Update of the User's profile FIC Telephone Numbers My Weather Data Folder Route Weather Data Regional Weather Data Local Weather Data To the Forecasts and Observations / NOTAM section
Request Generated 06/26/2017 at 03:29:05 UTC . Weather information available at that time is displayed.

METAR/TAF

WINDSOR/ON    

METAR CYQG 260300Z 23003KT 15SM FEW095 15/11 A3004 RMK AC1 SLP173
DENSITY ALT 700FT=
METAR CYQG 260200Z 00000KT 15SM FEW060 FEW095 17/11 A3003 RMK CU1AC2
CU TR SLP170 DENSITY ALT 900FT=
METAR CYQG 260100Z 26007KT 15SM FEW060 SCT090 19/08 A3002 RMK CU1AC3
SLP165 DENSITY ALT 1100FT=

TAF CYQG 252338Z 2600/2624 35008KT P6SM SCT060 BKN100
BECMG 2600/2602 23007KT FEW100
FM260900 25008KT P6SM BKN080
BECMG 2613/2615 26015G25KT SCT050
FM261700 27015G25KT P6SM BKN050
BECMG 2621/2623 27012KT
RMK NXT FCST BY 260600Z=
Your time UTC time
Weather data provided by Environment Canada and NAV CANADA